Time;durP1;ratioP1;P1;durP2;ratioP2;P2;SDS_P1;SDS_P2;PMS_P1;PMS_P2;Temp;Humidity;BMP_temperature;BMP_pressure;BME280_temperature;BME280_humidity;BME280_pressure;Samples;Min_cycle;Max_cycle;Signal;HPM_P1;HPM_P2
2023/04/28 00:01:20;;;;;;;4.40;3.80;;;;;;;;;;5053960;28;20459;-57
2023/04/28 00:03:47;;;;;;;4.25;3.42;;;;;;;;;;5053891;28;20025;-58
2023/04/28 00:06:13;;;;;;;5.28;3.83;;;;;;;;;;5054420;28;20037;-57
2023/04/28 00:08:40;;;;;;;4.63;3.20;;;;;;;;;;5053844;28;20029;-58
2023/04/28 00:11:12;;;;;;;4.97;3.05;;;;;;;;;;5054644;28;20032;-58
2023/04/28 00:13:38;;;;;;;8.05;2.90;;;;;;;;;;5053834;28;20068;-58
2023/04/28 00:16:04;;;;;;;4.13;3.30;;;;;;;;;;5054431;28;20439;-58
2023/04/28 00:18:32;;;;;;;4.80;3.25;;;;;;;;;;5054011;28;20040;-58
2023/04/28 00:20:58;;;;;;;4.38;3.25;;;;;;;;;;5053642;28;20378;-58
2023/04/28 00:23:24;;;;;;;4.72;2.90;;;;;;;;;;5053641;28;20086;-57
2023/04/28 00:25:53;;;;;;;5.30;3.58;;;;;;;;;;5053672;28;20119;-58
2023/04/28 00:28:19;;;;;;;4.43;3.20;;;;;;;;;;5053591;28;20029;-56
2023/04/28 00:30:45;;;;;;;4.65;3.47;;;;;;;;;;5059077;28;20033;-57
2023/04/28 00:33:12;;;;;;;4.60;2.97;;;;;;;;;;5060160;28;20529;-58
2023/04/28 00:35:38;;;;;;;4.70;3.20;;;;;;;;;;5060222;28;20467;-57
2023/04/28 00:38:04;;;;;;;4.00;3.08;;;;;;;;;;5060536;28;20032;-58
2023/04/28 00:40:33;;;;;;;4.00;2.60;;;;;;;;;;5058973;28;20430;-57
2023/04/28 00:42:59;;;;;;;3.42;2.72;;;;;;;;;;5060693;28;20033;-57
2023/04/28 00:45:25;;;;;;;5.15;3.13;;;;;;;;;;5060598;28;20036;-58
2023/04/28 00:47:52;;;;;;;4.50;3.30;;;;;;;;;;5060121;28;20086;-58
2023/04/28 00:50:18;;;;;;;8.40;3.33;;;;;;;;;;5060068;28;20032;-58
2023/04/28 00:52:44;;;;;;;3.97;3.03;;;;;;;;;;5060377;28;20036;-57
2023/04/28 00:55:10;;;;;;;3.25;2.60;;;;;;;;;;5060036;28;20025;-58
2023/04/28 00:57:36;;;;;;;3.75;2.92;;;;;;;;;;5060623;28;20028;-58
2023/04/28 01:00:03;;;;;;;4.45;3.08;;;;;;;;;;5059823;28;20029;-57
2023/04/28 01:02:29;;;;;;;4.25;3.00;;;;;;;;;;5059943;28;20028;-58
2023/04/28 01:04:56;;;;;;;4.65;3.15;;;;;;;;;;5059913;28;20028;-58
2023/04/28 01:07:22;;;;;;;4.00;3.05;;;;;;;;;;5060612;28;20025;-57
2023/04/28 01:09:48;;;;;;;5.90;2.90;;;;;;;;;;5059998;28;20374;-58
2023/04/28 01:12:14;;;;;;;5.55;3.00;;;;;;;;;;5059970;28;20050;-58
2023/04/28 01:14:40;;;;;;;5.07;3.03;;;;;;;;;;5059610;28;20045;-57
2023/04/28 01:17:07;;;;;;;4.43;3.20;;;;;;;;;;5059610;28;20025;-58
2023/04/28 01:19:33;;;;;;;3.80;2.83;;;;;;;;;;5060123;28;20414;-58
2023/04/28 01:21:59;;;;;;;4.55;2.67;;;;;;;;;;5060362;28;20029;-58
2023/04/28 01:24:25;;;;;;;3.67;3.08;;;;;;;;;;5059895;28;20486;-58
2023/04/28 01:26:51;;;;;;;3.35;3.03;;;;;;;;;;5060391;28;20474;-58
2023/04/28 01:29:17;;;;;;;4.32;3.17;;;;;;;;;;5059757;28;20029;-58
2023/04/28 01:31:43;;;;;;;7.20;3.35;;;;;;;;;;5059810;28;20029;-57
2023/04/28 01:34:09;;;;;;;4.18;3.33;;;;;;;;;;5059464;28;20035;-58
2023/04/28 01:36:35;;;;;;;3.92;2.63;;;;;;;;;;5059787;28;20536;-57
2023/04/28 01:39:01;;;;;;;4.65;2.70;;;;;;;;;;5059727;28;20024;-57
2023/04/28 01:41:27;;;;;;;3.47;2.72;;;;;;;;;;5057049;28;20112;-57
2023/04/28 01:43:53;;;;;;;5.68;3.17;;;;;;;;;;5056570;28;20107;-58
2023/04/28 01:46:19;;;;;;;3.92;3.25;;;;;;;;;;5055088;28;20041;-57
2023/04/28 01:48:44;;;;;;;4.72;2.60;;;;;;;;;;5056964;28;20036;-57
2023/04/28 01:51:10;;;;;;;3.60;2.95;;;;;;;;;;5056917;28;20075;-58
2023/04/28 01:53:36;;;;;;;4.32;2.65;;;;;;;;;;5056351;28;20094;-57
2023/04/28 01:56:03;;;;;;;3.30;2.58;;;;;;;;;;5056687;28;20045;-56
2023/04/28 01:58:29;;;;;;;2.97;2.67;;;;;;;;;;5056297;28;20060;-57
2023/04/28 02:00:54;;;;;;;3.50;2.45;;;;;;;;;;5055974;28;20479;-58
2023/04/28 02:03:20;;;;;;;4.45;2.85;;;;;;;;;;5056219;28;20029;-57
2023/04/28 02:05:46;;;;;;;3.05;2.25;;;;;;;;;;5056561;28;20113;-57
2023/04/28 02:08:12;;;;;;;3.53;2.90;;;;;;;;;;5055839;28;20025;-58
2023/04/28 02:10:38;;;;;;;4.43;2.78;;;;;;;;;;5056089;28;20371;-58
2023/04/28 02:13:04;;;;;;;3.72;3.15;;;;;;;;;;5056157;28;20071;-58
2023/04/28 02:15:30;;;;;;;3.47;2.75;;;;;;;;;;5056451;28;20053;-58
2023/04/28 02:17:56;;;;;;;3.17;2.47;;;;;;;;;;5056169;28;20075;-58
2023/04/28 02:20:22;;;;;;;3.38;2.47;;;;;;;;;;5055881;28;20040;-58
2023/04/28 02:22:48;;;;;;;4.00;3.15;;;;;;;;;;5056094;28;20443;-57
2023/04/28 02:25:14;;;;;;;2.53;2.13;;;;;;;;;;5055963;28;20367;-57
2023/04/28 02:27:40;;;;;;;3.92;3.05;;;;;;;;;;5056215;28;20032;-58
2023/04/28 02:30:06;;;;;;;3.45;2.50;;;;;;;;;;5055674;28;20021;-58
2023/04/28 02:32:32;;;;;;;4.53;2.97;;;;;;;;;;5055663;28;20036;-57
2023/04/28 02:34:58;;;;;;;4.15;3.22;;;;;;;;;;5055617;28;20083;-57
2023/04/28 02:37:25;;;;;;;4.35;3.15;;;;;;;;;;5055568;28;20029;-58
2023/04/28 02:39:51;;;;;;;3.92;2.92;;;;;;;;;;5055403;28;20025;-58
2023/04/28 02:42:17;;;;;;;5.22;3.35;;;;;;;;;;5056469;28;20463;-58
2023/04/28 02:44:43;;;;;;;3.58;2.35;;;;;;;;;;5055274;28;20025;-57
2023/04/28 02:47:09;;;;;;;3.85;2.63;;;;;;;;;;5055393;28;20422;-57
2023/04/28 02:49:35;;;;;;;3.85;2.80;;;;;;;;;;5055767;28;20115;-58
2023/04/28 02:52:01;;;;;;;3.78;3.22;;;;;;;;;;5055415;28;20499;-57
2023/04/28 02:54:27;;;;;;;3.90;3.08;;;;;;;;;;5055175;28;20022;-57
2023/04/28 02:56:53;;;;;;;5.63;3.38;;;;;;;;;;5055169;28;20021;-58
2023/04/28 02:59:20;;;;;;;4.30;2.95;;;;;;;;;;5055674;28;20029;-57
2023/04/28 03:01:46;;;;;;;6.43;3.75;;;;;;;;;;5055833;28;20032;-57
2023/04/28 03:04:13;;;;;;;4.60;3.60;;;;;;;;;;5055001;28;20086;-57
2023/04/28 03:06:38;;;;;;;4.28;3.05;;;;;;;;;;5054518;28;20391;-58
2023/04/28 03:09:05;;;;;;;5.05;3.17;;;;;;;;;;5054946;28;20036;-58
2023/04/28 03:11:31;;;;;;;4.85;3.50;;;;;;;;;;5055358;28;20032;-58
2023/04/28 03:13:57;;;;;;;3.70;3.10;;;;;;;;;;5054539;28;20418;-58
2023/04/28 03:16:23;;;;;;;5.15;3.13;;;;;;;;;;5054777;28;20029;-58
2023/04/28 03:18:49;;;;;;;5.72;3.25;;;;;;;;;;5055278;28;20021;-57
2023/04/28 03:21:15;;;;;;;3.95;2.97;;;;;;;;;;5054700;28;20455;-58
2023/04/28 03:23:41;;;;;;;5.10;3.17;;;;;;;;;;5055064;28;20025;-58
2023/04/28 03:26:07;;;;;;;4.03;2.65;;;;;;;;;;5054578;28;20040;-58
2023/04/28 03:28:33;;;;;;;6.03;3.15;;;;;;;;;;5054278;28;20029;-57
2023/04/28 03:30:59;;;;;;;4.13;2.88;;;;;;;;;;5054798;28;20027;-58
2023/04/28 03:33:25;;;;;;;4.82;2.08;;;;;;;;;;5054961;28;20119;-58
2023/04/28 03:35:52;;;;;;;3.60;2.63;;;;;;;;;;5054443;28;20068;-58
2023/04/28 03:38:18;;;;;;;3.85;2.67;;;;;;;;;;5054912;28;20029;-58
2023/04/28 03:40:44;;;;;;;3.90;2.65;;;;;;;;;;5054998;28;20431;-58
2023/04/28 03:43:10;;;;;;;3.33;2.40;;;;;;;;;;5054837;28;20028;-58
2023/04/28 03:45:36;;;;;;;3.65;2.60;;;;;;;;;;5054981;28;20040;-58
2023/04/28 03:48:02;;;;;;;3.97;2.10;;;;;;;;;;5054295;28;20025;-58
2023/04/28 03:50:28;;;;;;;2.85;2.30;;;;;;;;;;5054531;28;20029;-58
2023/04/28 03:52:54;;;;;;;3.22;2.67;;;;;;;;;;5054224;28;20117;-58
2023/04/28 03:55:20;;;;;;;4.60;2.25;;;;;;;;;;5054907;28;20086;-57
2023/04/28 03:57:46;;;;;;;2.55;1.90;;;;;;;;;;5054165;28;20025;-58
2023/04/28 04:00:12;;;;;;;5.03;2.83;;;;;;;;;;5054919;28;20028;-57
2023/04/28 04:02:38;;;;;;;2.97;2.42;;;;;;;;;;5054306;28;20371;-57
2023/04/28 04:05:04;;;;;;;4.20;2.85;;;;;;;;;;5053473;28;20037;-59
2023/04/28 04:07:30;;;;;;;4.47;2.72;;;;;;;;;;5054813;28;20083;-56
2023/04/28 04:09:56;;;;;;;2.80;2.20;;;;;;;;;;5053714;28;20466;-57
2023/04/28 04:12:22;;;;;;;3.83;2.53;;;;;;;;;;5053869;28;20024;-57
2023/04/28 04:14:48;;;;;;;3.78;2.75;;;;;;;;;;5053525;28;20410;-56
2023/04/28 04:17:15;;;;;;;5.10;3.05;;;;;;;;;;5054106;28;20064;-57
2023/04/28 04:19:41;;;;;;;4.35;2.70;;;;;;;;;;5053789;28;20029;-56
2023/04/28 04:22:07;;;;;;;4.97;3.17;;;;;;;;;;5053646;28;20029;-56
2023/04/28 04:24:33;;;;;;;3.75;2.30;;;;;;;;;;5053790;28;20036;-56
2023/04/28 04:26:59;;;;;;;3.05;2.55;;;;;;;;;;5054030;28;20040;-57
2023/04/28 04:29:25;;;;;;;3.63;2.83;;;;;;;;;;5053956;28;20031;-57
2023/04/28 04:31:51;;;;;;;4.65;2.63;;;;;;;;;;5054141;28;20025;-57
2023/04/28 04:34:17;;;;;;;2.47;1.95;;;;;;;;;;5053701;28;20425;-57
2023/04/28 04:36:43;;;;;;;5.43;2.97;;;;;;;;;;5053246;28;20387;-57
2023/04/28 04:39:09;;;;;;;3.45;2.63;;;;;;;;;;5054277;28;20022;-57
2023/04/28 04:41:35;;;;;;;3.88;2.08;;;;;;;;;;5053478;28;20025;-57
2023/04/28 04:44:01;;;;;;;3.97;2.47;;;;;;;;;;5053756;28;20060;-56
2023/04/28 04:46:27;;;;;;;3.70;2.42;;;;;;;;;;5053567;28;20032;-57
2023/04/28 04:48:53;;;;;;;3.42;2.45;;;;;;;;;;5053721;28;20109;-57
2023/04/28 04:51:19;;;;;;;3.50;2.55;;;;;;;;;;5053480;28;20032;-57
2023/04/28 04:53:45;;;;;;;3.00;2.55;;;;;;;;;;5053432;28;20037;-57
2023/04/28 04:56:11;;;;;;;4.60;2.67;;;;;;;;;;5053739;28;20036;-57
2023/04/28 04:58:37;;;;;;;3.50;2.00;;;;;;;;;;5053443;28;20148;-57
2023/04/28 05:01:03;;;;;;;3.15;1.90;;;;;;;;;;5053340;28;20021;-57
2023/04/28 05:03:29;;;;;;;4.70;2.25;;;;;;;;;;5053822;28;20040;-57
2023/04/28 05:05:55;;;;;;;4.22;2.25;;;;;;;;;;5053476;28;20029;-57
2023/04/28 05:08:21;;;;;;;5.15;2.80;;;;;;;;;;5053454;28;20032;-57
2023/04/28 05:10:47;;;;;;;4.13;2.40;;;;;;;;;;5053015;28;20107;-57
2023/04/28 05:13:13;;;;;;;3.78;2.58;;;;;;;;;;5053458;28;20021;-57
2023/04/28 05:15:39;;;;;;;4.03;2.70;;;;;;;;;;5054122;28;20048;-57
2023/04/28 05:18:09;;;;;;;3.50;2.45;;;;;;;;;;5056517;28;20036;-57
2023/04/28 05:20:35;;;;;;;4.13;2.40;;;;;;;;;;5057049;28;20455;-57
2023/04/28 05:23:01;;;;;;;3.40;2.50;;;;;;;;;;5056801;28;20040;-57
2023/04/28 05:25:27;;;;;;;3.03;2.50;;;;;;;;;;5056724;28;20471;-57
2023/04/28 05:27:53;;;;;;;3.10;2.65;;;;;;;;;;5056875;28;20035;-57
2023/04/28 05:30:19;;;;;;;3.28;2.65;;;;;;;;;;5056737;28;20422;-57
2023/04/28 05:32:45;;;;;;;2.63;2.08;;;;;;;;;;5056569;28;20117;-56
2023/04/28 05:35:11;;;;;;;3.45;2.80;;;;;;;;;;5056560;28;20065;-57
2023/04/28 05:37:37;;;;;;;3.13;2.38;;;;;;;;;;5057202;28;20033;-57
2023/04/28 05:40:03;;;;;;;3.28;2.35;;;;;;;;;;5056491;28;20021;-57
2023/04/28 05:42:29;;;;;;;3.58;2.75;;;;;;;;;;5056496;28;20025;-57
2023/04/28 05:44:55;;;;;;;4.40;2.75;;;;;;;;;;5056932;28;20024;-57
2023/04/28 05:47:21;;;;;;;3.85;2.80;;;;;;;;;;5056273;28;20375;-57
2023/04/28 05:49:47;;;;;;;3.10;2.40;;;;;;;;;;5056359;28;20025;-59
2023/04/28 05:52:13;;;;;;;5.63;2.90;;;;;;;;;;5056436;28;20025;-59
2023/04/28 05:54:39;;;;;;;3.08;2.50;;;;;;;;;;5055926;28;20064;-60
2023/04/28 05:57:05;;;;;;;3.58;2.72;;;;;;;;;;5056407;28;20028;-57
2023/04/28 05:59:31;;;;;;;2.70;2.13;;;;;;;;;;5056284;28;20021;-57
2023/04/28 06:01:57;;;;;;;3.05;2.15;;;;;;;;;;5056140;28;20028;-57
2023/04/28 06:04:24;;;;;;;8.27;3.13;;;;;;;;;;5056181;28;20025;-57
2023/04/28 06:06:50;;;;;;;4.30;2.95;;;;;;;;;;5056012;28;20037;-57
2023/04/28 06:09:16;;;;;;;3.75;2.60;;;;;;;;;;5056041;28;20040;-57
2023/04/28 06:11:42;;;;;;;3.55;2.50;;;;;;;;;;5055566;28;20025;-57
2023/04/28 06:14:08;;;;;;;4.43;3.03;;;;;;;;;;5055584;28;20135;-57
2023/04/28 06:16:34;;;;;;;5.13;3.35;;;;;;;;;;5056238;28;20049;-57
2023/04/28 06:19:00;;;;;;;3.22;2.72;;;;;;;;;;5055674;28;20413;-57
2023/04/28 06:21:27;;;;;;;3.72;2.95;;;;;;;;;;5056275;28;20028;-57
2023/04/28 06:23:53;;;;;;;3.38;2.25;;;;;;;;;;5056085;28;20470;-58
2023/04/28 06:26:19;;;;;;;4.82;3.47;;;;;;;;;;5056140;28;20375;-57
2023/04/28 06:28:45;;;;;;;4.13;3.30;;;;;;;;;;5055228;28;20482;-57
2023/04/28 06:31:11;;;;;;;4.22;2.90;;;;;;;;;;5056011;28;20029;-57
2023/04/28 06:33:37;;;;;;;5.72;3.63;;;;;;;;;;5055629;28;20035;-57
2023/04/28 06:36:04;;;;;;;4.18;2.88;;;;;;;;;;5055615;28;20033;-57
2023/04/28 06:38:29;;;;;;;4.18;3.35;;;;;;;;;;5055350;28;20082;-57
2023/04/28 06:40:56;;;;;;;4.85;3.88;;;;;;;;;;5055505;28;20033;-57
2023/04/28 06:43:21;;;;;;;4.78;3.05;;;;;;;;;;5054351;28;20410;-57
2023/04/28 06:45:47;;;;;;;4.05;3.10;;;;;;;;;;5055678;28;20047;-57
2023/04/28 06:48:13;;;;;;;4.03;2.97;;;;;;;;;;5055839;28;20379;-57
2023/04/28 06:50:39;;;;;;;3.45;2.83;;;;;;;;;;5055327;28;20028;-57
2023/04/28 06:53:06;;;;;;;4.43;3.70;;;;;;;;;;5055200;28;20107;-59
2023/04/28 06:55:32;;;;;;;4.55;3.22;;;;;;;;;;5055870;28;20388;-59
2023/04/28 06:57:58;;;;;;;5.95;3.60;;;;;;;;;;5055128;28;20025;-58
2023/04/28 07:00:24;;;;;;;4.20;3.30;;;;;;;;;;5053890;28;20115;-57
2023/04/28 07:02:50;;;;;;;3.85;3.05;;;;;;;;;;5055759;28;20131;-57
2023/04/28 07:05:16;;;;;;;4.47;3.85;;;;;;;;;;5055022;28;20129;-57
2023/04/28 07:07:42;;;;;;;4.35;3.78;;;;;;;;;;5055722;28;20032;-57
2023/04/28 07:10:09;;;;;;;4.38;3.83;;;;;;;;;;5054938;28;20093;-57
2023/04/28 07:12:35;;;;;;;3.80;2.90;;;;;;;;;;5054677;28;20037;-57
2023/04/28 07:15:01;;;;;;;8.57;4.25;;;;;;;;;;5054658;28;20124;-57
2023/04/28 07:17:27;;;;;;;5.30;3.97;;;;;;;;;;5055042;28;20025;-57
2023/04/28 07:19:53;;;;;;;4.95;3.20;;;;;;;;;;5054461;28;20454;-57
2023/04/28 07:22:19;;;;;;;4.93;3.92;;;;;;;;;;5055485;28;20025;-57
2023/04/28 07:24:45;;;;;;;5.45;4.15;;;;;;;;;;5054608;28;20025;-57
2023/04/28 07:27:11;;;;;;;4.20;3.35;;;;;;;;;;5054670;28;20446;-57
2023/04/28 07:29:37;;;;;;;4.57;3.67;;;;;;;;;;5055586;28;20112;-58
2023/04/28 07:32:12;;;;;;;4.93;3.08;;;;;;;;;;5054456;28;20025;-57
2023/04/28 07:34:38;;;;;;;4.85;3.55;;;;;;;;;;5054593;28;20086;-57
2023/04/28 07:37:04;;;;;;;6.25;3.70;;;;;;;;;;5054865;28;20033;-57
2023/04/28 07:39:31;;;;;;;4.95;3.70;;;;;;;;;;5054131;28;20025;-57
2023/04/28 07:41:57;;;;;;;5.85;3.47;;;;;;;;;;5055109;28;20119;-57
2023/04/28 07:44:23;;;;;;;6.43;3.67;;;;;;;;;;5054124;28;20489;-57
2023/04/28 07:46:49;;;;;;;6.05;3.17;;;;;;;;;;5054385;28;20167;-57
2023/04/28 07:49:15;;;;;;;4.00;3.45;;;;;;;;;;5054295;28;20037;-57
2023/04/28 07:51:41;;;;;;;4.90;3.20;;;;;;;;;;5054212;28;20083;-57
2023/04/28 07:54:07;;;;;;;5.15;3.45;;;;;;;;;;5054203;28;20425;-58
2023/04/28 07:56:33;;;;;;;4.28;3.30;;;;;;;;;;5054181;28;20032;-58
2023/04/28 07:59:00;;;;;;;4.20;3.03;;;;;;;;;;5054083;28;20028;-57
2023/04/28 08:01:26;;;;;;;3.67;3.00;;;;;;;;;;5053986;28;20029;-57
2023/04/28 08:03:51;;;;;;;4.07;2.80;;;;;;;;;;5052661;28;20521;-58
2023/04/28 08:06:18;;;;;;;3.90;2.83;;;;;;;;;;5053955;28;20036;-59
2023/04/28 08:08:44;;;;;;;4.05;3.10;;;;;;;;;;5054552;28;20079;-60
2023/04/28 08:11:10;;;;;;;4.70;3.25;;;;;;;;;;5053861;28;20219;-59
2023/04/28 08:13:36;;;;;;;3.92;3.10;;;;;;;;;;5054174;28;20017;-59
2023/04/28 08:16:02;;;;;;;3.17;2.17;;;;;;;;;;5054138;28;20025;-59
2023/04/28 08:18:28;;;;;;;4.03;2.70;;;;;;;;;;5053779;28;20108;-60
2023/04/28 08:20:54;;;;;;;3.88;2.67;;;;;;;;;;5054190;28;20033;-59
2023/04/28 08:23:21;;;;;;;3.00;2.03;;;;;;;;;;5053764;28;20029;-59
2023/04/28 08:25:46;;;;;;;3.83;2.80;;;;;;;;;;5053900;28;20087;-57
2023/04/28 08:28:13;;;;;;;4.20;2.95;;;;;;;;;;5053700;28;20520;-57
2023/04/28 08:30:39;;;;;;;3.92;2.55;;;;;;;;;;5054125;28;20116;-57
2023/04/28 08:33:05;;;;;;;4.05;3.05;;;;;;;;;;5054294;28;20071;-59
2023/04/28 08:35:31;;;;;;;4.20;3.25;;;;;;;;;;5053349;28;20033;-59
2023/04/28 08:37:57;;;;;;;3.13;2.60;;;;;;;;;;5053333;28;20108;-59
2023/04/28 08:40:25;;;;;;;4.60;2.95;;;;;;;;;;5053702;28;20053;-59
2023/04/28 08:42:51;;;;;;;3.53;2.78;;;;;;;;;;5053440;28;20036;-59
2023/04/28 08:45:17;;;;;;;5.68;3.05;;;;;;;;;;5054075;28;20033;-59
2023/04/28 08:47:48;;;;;;;3.85;3.40;;;;;;;;;;5053389;28;20017;-59
2023/04/28 08:50:14;;;;;;;;;;;;;;;;;;5055000;28;20033;-59
2023/04/28 08:52:41;;;;;;;3.38;2.70;;;;;;;;;;5057499;28;19905;-59
2023/04/28 08:55:07;;;;;;;6.32;3.17;;;;;;;;;;5057711;28;20037;-59
2023/04/28 08:57:42;;;;;;;3.72;2.67;;;;;;;;;;5058235;28;20025;-60
2023/04/28 09:00:09;;;;;;;4.72;3.17;;;;;;;;;;5057871;28;20359;-59
2023/04/28 09:02:36;;;;;;;4.30;3.33;;;;;;;;;;5057264;28;20518;-59
2023/04/28 09:05:03;;;;;;;2.95;2.50;;;;;;;;;;5056905;28;20032;-59
2023/04/28 09:07:29;;;;;;;3.88;3.00;;;;;;;;;;5057780;28;20021;-59
2023/04/28 09:10:15;;;;;;;4.15;3.22;;;;;;;;;;5057262;28;20043;-59
2023/04/28 09:12:41;;;;;;;5.72;3.25;;;;;;;;;;5057756;28;20115;-59
2023/04/28 09:15:08;;;;;;;4.53;3.58;;;;;;;;;;5057378;28;20072;-57
2023/04/28 09:17:47;;;;;;;4.45;3.10;;;;;;;;;;5057909;28;20143;-59
2023/04/28 09:20:21;;;;;;;3.45;2.83;;;;;;;;;;5057526;28;20116;-60
2023/04/28 09:22:47;;;;;;;3.30;2.83;;;;;;;;;;5056941;28;20029;-57
2023/04/28 09:25:13;;;;;;;4.35;3.47;;;;;;;;;;5057273;28;20028;-59
2023/04/28 09:27:39;;;;;;;4.72;3.67;;;;;;;;;;5057447;28;20386;-58
2023/04/28 09:30:05;;;;;;;3.78;2.88;;;;;;;;;;5057206;28;20021;-58
2023/04/28 09:32:31;;;;;;;3.60;2.75;;;;;;;;;;5057583;28;20029;-58
2023/04/28 09:34:58;;;;;;;4.22;3.35;;;;;;;;;;5056811;28;20379;-58
2023/04/28 09:37:25;;;;;;;11.80;4.75;;;;;;;;;;5056770;28;20040;-58
2023/04/28 09:39:53;;;;;;;5.15;3.20;;;;;;;;;;5056598;28;20021;-58
2023/04/28 09:42:34;;;;;;;5.07;3.83;;;;;;;;;;5056545;28;20459;-58
2023/04/28 09:45:02;;;;;;;3.63;2.55;;;;;;;;;;5056476;28;20025;-58
2023/04/28 09:47:28;;;;;;;3.10;2.60;;;;;;;;;;5056764;28;20040;-58
2023/04/28 09:49:57;;;;;;;3.78;2.65;;;;;;;;;;5057021;28;20095;-59
2023/04/28 09:52:23;;;;;;;2.65;2.03;;;;;;;;;;5056476;28;20029;-59
2023/04/28 09:54:50;;;;;;;4.38;2.78;;;;;;;;;;5056346;28;20049;-58
2023/04/28 09:57:17;;;;;;;4.22;2.85;;;;;;;;;;5056929;28;20468;-58
2023/04/28 09:59:45;;;;;;;3.70;2.67;;;;;;;;;;5056218;28;20030;-58
2023/04/28 10:02:12;;;;;;;3.78;2.35;;;;;;;;;;5055290;28;20025;-58
2023/04/28 10:04:39;;;;;;;2.60;1.67;;;;;;;;;;5056220;28;20345;-58
2023/04/28 10:07:06;;;;;;;3.35;1.83;;;;;;;;;;5056509;28;20378;-59
2023/04/28 10:09:32;;;;;;;2.75;1.77;;;;;;;;;;5056553;28;20029;-58
2023/04/28 10:11:59;;;;;;;2.30;1.45;;;;;;;;;;5056112;28;20386;-59
2023/04/28 10:14:25;;;;;;;1.98;1.48;;;;;;;;;;5055767;28;20089;-59
2023/04/28 10:16:53;;;;;;;2.47;1.40;;;;;;;;;;5055917;28;20021;-59
2023/04/28 10:19:19;;;;;;;1.63;1.02;;;;;;;;;;5055568;28;20553;-59
2023/04/28 10:21:51;;;;;;;3.30;1.48;;;;;;;;;;5055884;28;20039;-59
2023/04/28 10:24:28;;;;;;;1.80;0.90;;;;;;;;;;5056554;28;20025;-59
2023/04/28 10:27:06;;;;;;;1.88;1.02;;;;;;;;;;5056255;28;20037;-59
2023/04/28 10:29:32;;;;;;;1.75;1.15;;;;;;;;;;5055989;28;20028;-58
2023/04/28 10:32:16;;;;;;;2.40;1.38;;;;;;;;;;5055606;28;20463;-59
2023/04/28 10:34:42;;;;;;;1.48;0.93;;;;;;;;;;5055654;28;20102;-59
2023/04/28 10:37:08;;;;;;;2.20;1.20;;;;;;;;;;5056201;28;20033;-58
2023/04/28 10:39:34;;;;;;;2.03;1.13;;;;;;;;;;5056078;28;20029;-58
2023/04/28 10:42:00;;;;;;;1.50;0.85;;;;;;;;;;5055598;28;20478;-59
2023/04/28 10:44:29;;;;;;;1.73;0.90;;;;;;;;;;5055774;28;20470;-58
2023/04/28 10:47:02;;;;;;;1.50;0.75;;;;;;;;;;5055196;28;20033;-58
2023/04/28 10:49:47;;;;;;;2.30;0.90;;;;;;;;;;5055345;28;20029;-59
2023/04/28 10:52:31;;;;;;;0.95;0.52;;;;;;;;;;5055280;28;20494;-59
2023/04/28 10:55:16;;;;;;;1.27;0.52;;;;;;;;;;5055253;28;20051;-58
2023/04/28 10:57:42;;;;;;;1.88;0.80;;;;;;;;;;5055317;28;20379;-58
2023/04/28 11:00:27;;;;;;;1.10;0.57;;;;;;;;;;5055363;28;20024;-59
2023/04/28 11:02:53;;;;;;;1.42;0.70;;;;;;;;;;5055059;28;20063;-58
2023/04/28 11:05:19;;;;;;;1.55;0.88;;;;;;;;;;5055481;28;20032;-58
2023/04/28 11:08:04;;;;;;;2.95;0.70;;;;;;;;;;5055024;28;20017;-58
2023/04/28 11:10:49;;;;;;;0.70;0.40;;;;;;;;;;5055014;28;20374;-59
2023/04/28 11:13:30;;;;;;;0.77;0.38;;;;;;;;;;5054851;28;20032;-59
2023/04/28 11:16:03;;;;;;;0.55;0.20;;;;;;;;;;5055478;28;20060;-59
2023/04/28 11:18:29;;;;;;;0.32;0.13;;;;;;;;;;5054810;28;20028;-58
2023/04/28 11:20:58;;;;;;;1.35;0.60;;;;;;;;;;5054791;28;20025;-59
2023/04/28 11:23:28;;;;;;;0.52;0.25;;;;;;;;;;5054537;28;20124;-59
2023/04/28 11:25:55;;;;;;;0.60;0.22;;;;;;;;;;5054359;28;20033;-59
2023/04/28 11:28:21;;;;;;;0.32;0.17;;;;;;;;;;5054963;28;20474;-59
2023/04/28 11:30:47;;;;;;;0.70;0.20;;;;;;;;;;5054251;28;20021;-59
2023/04/28 11:33:13;;;;;;;0.45;0.20;;;;;;;;;;5053982;28;20428;-59
2023/04/28 11:35:42;;;;;;;0.63;0.20;;;;;;;;;;5054382;28;20417;-58
2023/04/28 11:38:08;;;;;;;0.30;0.10;;;;;;;;;;5054763;28;20044;-58
2023/04/28 11:40:34;;;;;;;0.85;0.30;;;;;;;;;;5054730;28;20047;-58
2023/04/28 11:43:02;;;;;;;0.70;0.30;;;;;;;;;;5054361;28;20082;-59
2023/04/28 11:45:28;;;;;;;0.43;0.13;;;;;;;;;;5054123;28;20359;-59
2023/04/28 11:47:54;;;;;;;0.68;0.30;;;;;;;;;;5054702;28;20045;-59
2023/04/28 11:50:36;;;;;;;0.57;0.20;;;;;;;;;;5054397;28;20460;-59
2023/04/28 11:53:02;;;;;;;0.70;0.30;;;;;;;;;;5054244;28;20025;-58
2023/04/28 11:55:28;;;;;;;0.15;0.10;;;;;;;;;;5054155;28;20025;-59
2023/04/28 11:58:13;;;;;;;1.17;0.57;;;;;;;;;;5054310;28;20072;-59
2023/04/28 12:00:39;;;;;;;0.57;0.20;;;;;;;;;;5054553;28;20036;-59
2023/04/28 12:03:07;;;;;;;0.60;0.20;;;;;;;;;;5053802;28;20021;-58
2023/04/28 12:05:34;;;;;;;0.60;0.20;;;;;;;;;;5054055;28;20198;-59
2023/04/28 12:08:00;;;;;;;1.17;0.52;;;;;;;;;;5053965;28;20025;-59
2023/04/28 12:10:26;;;;;;;0.45;0.20;;;;;;;;;;5053971;28;20383;-59
2023/04/28 12:12:52;;;;;;;0.50;0.25;;;;;;;;;;5053932;28;20029;-58
2023/04/28 12:15:19;;;;;;;0.40;0.20;;;;;;;;;;5053845;28;20053;-59
2023/04/28 12:17:45;;;;;;;0.50;0.20;;;;;;;;;;5054318;28;20355;-59
2023/04/28 12:20:12;;;;;;;0.73;0.20;;;;;;;;;;5053765;28;20021;-58
2023/04/28 12:22:45;;;;;;;3.05;0.77;;;;;;;;;;5053698;28;20111;-59
2023/04/28 12:25:12;;;;;;;1.10;0.65;;;;;;;;;;5053698;28;20411;-59
2023/04/28 12:27:39;;;;;;;0.60;0.22;;;;;;;;;;5054337;28;20073;-59
2023/04/28 12:30:21;;;;;;;0.95;0.30;;;;;;;;;;5054447;28;20060;-59
2023/04/28 12:32:47;;;;;;;0.75;0.40;;;;;;;;;;5053530;28;20029;-59
2023/04/28 12:35:13;;;;;;;0.60;0.20;;;;;;;;;;5054040;28;20031;-59
2023/04/28 12:37:40;;;;;;;0.98;0.50;;;;;;;;;;5053657;28;20082;-59
2023/04/28 12:40:06;;;;;;;0.70;0.22;;;;;;;;;;5053523;28;20025;-59
2023/04/28 12:42:32;;;;;;;0.68;0.25;;;;;;;;;;5052837;28;20087;-58
2023/04/28 12:44:58;;;;;;;1.02;0.22;;;;;;;;;;5053816;28;20024;-59
2023/04/28 12:47:24;;;;;;;2.88;0.40;;;;;;;;;;5053609;28;20044;-58
2023/04/28 12:49:52;;;;;;;0.98;0.40;;;;;;;;;;5053659;28;20033;-59
2023/04/28 12:52:18;;;;;;;0.52;0.17;;;;;;;;;;5053437;28;20067;-58
2023/04/28 12:54:46;;;;;;;0.93;0.40;;;;;;;;;;5053853;28;20031;-59
2023/04/28 12:57:16;;;;;;;0.65;0.25;;;;;;;;;;5053634;28;20370;-58
2023/04/28 12:59:42;;;;;;;1.00;0.45;;;;;;;;;;5054181;28;20025;-59
2023/04/28 13:02:08;;;;;;;0.85;0.40;;;;;;;;;;5053459;28;20032;-58
2023/04/28 13:04:34;;;;;;;0.82;0.35;;;;;;;;;;5053794;28;20339;-58
2023/04/28 13:07:01;;;;;;;1.27;0.57;;;;;;;;;;5053396;28;20065;-59
2023/04/28 13:09:27;;;;;;;1.67;0.40;;;;;;;;;;5053225;28;20375;-58
2023/04/28 13:11:53;;;;;;;0.63;0.20;;;;;;;;;;5053232;28;20035;-59
2023/04/28 13:14:19;;;;;;;1.35;0.45;;;;;;;;;;5053935;28;20049;-58
2023/04/28 13:16:45;;;;;;;2.42;0.60;;;;;;;;;;5053070;28;20024;-59
2023/04/28 13:19:13;;;;;;;2.08;0.93;;;;;;;;;;5053889;28;20029;-59
2023/04/28 13:21:40;;;;;;;3.92;0.80;;;;;;;;;;5052948;28;20086;-59
2023/04/28 13:24:07;;;;;;;1.35;0.68;;;;;;;;;;5052977;28;20033;-59
2023/04/28 13:26:33;;;;;;;1.13;0.40;;;;;;;;;;5053368;28;20124;-59
2023/04/28 13:29:00;;;;;;;1.90;0.47;;;;;;;;;;5052967;28;20021;-59
2023/04/28 13:31:26;;;;;;;0.47;0.22;;;;;;;;;;5053025;28;20029;-59
2023/04/28 13:33:52;;;;;;;0.65;0.20;;;;;;;;;;5053066;28;20120;-59
2023/04/28 13:36:18;;;;;;;0.95;0.40;;;;;;;;;;5053537;28;20033;-58
2023/04/28 13:38:47;;;;;;;0.55;0.20;;;;;;;;;;5055644;28;20033;-59
2023/04/28 13:41:13;;;;;;;0.80;0.40;;;;;;;;;;5056464;28;20078;-59
2023/04/28 13:43:40;;;;;;;1.70;0.28;;;;;;;;;;5056465;28;20104;-59
2023/04/28 13:46:07;;;;;;;0.98;0.20;;;;;;;;;;5056541;28;20040;-59
2023/04/28 13:48:34;;;;;;;0.73;0.28;;;;;;;;;;5057142;28;20036;-59
2023/04/28 13:51:00;;;;;;;0.63;0.35;;;;;;;;;;5056330;28;20025;-59
2023/04/28 13:53:26;;;;;;;0.63;0.13;;;;;;;;;;5056257;28;20024;-59
2023/04/28 13:55:52;;;;;;;0.73;0.28;;;;;;;;;;5056351;28;20043;-59
2023/04/28 13:58:19;;;;;;;2.47;0.32;;;;;;;;;;5057023;28;20112;-59
2023/04/28 14:00:45;;;;;;;0.40;0.20;;;;;;;;;;5056173;28;20021;-59
2023/04/28 14:03:11;;;;;;;0.50;0.20;;;;;;;;;;5056140;28;20028;-59
2023/04/28 14:05:37;;;;;;;0.77;0.30;;;;;;;;;;5056561;28;20079;-59
2023/04/28 14:08:05;;;;;;;0.60;0.20;;;;;;;;;;5056302;28;20040;-59
2023/04/28 14:10:31;;;;;;;0.57;0.25;;;;;;;;;;5056016;28;20029;-59
2023/04/28 14:12:57;;;;;;;1.08;0.40;;;;;;;;;;5056594;28;20359;-59
2023/04/28 14:15:23;;;;;;;0.50;0.20;;;;;;;;;;5056123;28;20139;-59
2023/04/28 14:17:49;;;;;;;1.58;0.40;;;;;;;;;;5055986;28;20018;-59
2023/04/28 14:20:16;;;;;;;0.82;0.32;;;;;;;;;;5056401;28;20451;-59
2023/04/28 14:22:42;;;;;;;0.68;0.28;;;;;;;;;;5055790;28;20025;-59
2023/04/28 14:25:08;;;;;;;0.68;0.30;;;;;;;;;;5055753;28;20032;-59
2023/04/28 14:27:34;;;;;;;0.30;0.10;;;;;;;;;;5056149;28;20068;-59
2023/04/28 14:30:01;;;;;;;0.45;0.20;;;;;;;;;;5055842;28;20017;-59
2023/04/28 14:32:27;;;;;;;0.52;0.28;;;;;;;;;;5055600;28;20017;-59
2023/04/28 14:34:53;;;;;;;0.93;0.28;;;;;;;;;;5055671;28;20071;-59
2023/04/28 14:37:19;;;;;;;0.68;0.20;;;;;;;;;;5056479;28;20383;-59
2023/04/28 14:39:45;;;;;;;1.33;0.63;;;;;;;;;;5055869;28;20367;-59
2023/04/28 14:42:11;;;;;;;0.45;0.17;;;;;;;;;;5055528;28;20486;-59